Time;durP1;ratioP1;P1;durP2;ratioP2;P2;SDS_P1;SDS_P2;PMS_P1;PMS_P2;Temp;Humidity;BMP_temperature;BMP_pressure;BME280_temperature;BME280_humidity;BME280_pressure;Samples;Min_cycle;Max_cycle;Signal;HPM_P1;HPM_P2
2023/01/21 00:01:20;;;;;;;12.43;6.70;;;6.90;91.80;;;;;;5042078;28;20230;-78
2023/01/21 00:03:49;;;;;;;14.87;7.57;;;6.80;91.80;;;;;;5046961;28;20207;-79
2023/01/21 00:06:17;;;;;;;14.63;8.13;;;6.80;91.90;;;;;;5043480;28;21442;-78
2023/01/21 00:08:46;;;;;;;14.67;7.60;;;6.70;91.90;;;;;;5026775;28;20264;-77
2023/01/21 00:11:15;;;;;;;15.43;7.43;;;6.70;91.90;;;;;;5046891;28;20206;-76
2023/01/21 00:13:44;;;;;;;14.33;7.40;;;6.70;91.90;;;;;;5032294;28;20206;-78
2023/01/21 00:16:14;;;;;;;15.10;6.27;;;6.60;91.90;;;;;;5048975;28;20648;-77
2023/01/21 00:18:43;;;;;;;12.90;6.40;;;6.70;92.00;;;;;;5047319;28;20222;-78
2023/01/21 00:21:11;;;;;;;15.07;8.07;;;6.60;92.00;;;;;;5049937;28;20195;-77
2023/01/21 00:23:40;;;;;;;13.60;7.13;;;6.50;92.00;;;;;;5041592;28;20199;-77
2023/01/21 00:26:11;;;;;;;13.67;7.67;;;6.60;92.00;;;;;;5040415;28;20795;-79
2023/01/21 00:28:40;;;;;;;14.57;7.23;;;6.50;92.00;;;;;;5039360;28;20195;-77
2023/01/21 00:31:10;;;;;;;15.50;7.43;;;6.50;92.00;;;;;;5042620;28;20209;-77
2023/01/21 00:33:40;;;;;;;17.70;7.80;;;6.40;92.00;;;;;;5044382;28;20578;-76
2023/01/21 00:36:17;;;;;;;13.17;7.50;;;6.40;92.00;;;;;;5047239;28;20717;-77
2023/01/21 00:38:51;;;;;;;14.23;7.40;;;6.40;92.10;;;;;;5039962;28;20659;-76
2023/01/21 00:41:20;;;;;;;14.53;7.50;;;6.40;92.10;;;;;;5044380;28;20845;-78
2023/01/21 00:43:48;;;;;;;16.10;7.90;;;6.30;92.00;;;;;;5047244;28;20210;-77
2023/01/21 00:46:17;;;;;;;17.38;8.57;;;6.30;92.20;;;;;;5036017;28;21058;-78
2023/01/21 00:48:46;;;;;;;15.47;8.17;;;6.20;92.20;;;;;;5039197;28;20211;-77
2023/01/21 00:51:15;;;;;;;16.10;8.10;;;6.20;92.20;;;;;;5049294;28;20195;-79
2023/01/21 00:53:43;;;;;;;16.83;8.03;;;6.10;92.30;;;;;;5038164;28;20226;-78
2023/01/21 00:56:13;;;;;;;14.10;7.33;;;6.20;92.30;;;;;;5047323;28;20197;-76
2023/01/21 00:58:43;;;;;;;14.40;7.17;;;6.10;92.40;;;;;;5045058;28;20204;-78
2023/01/21 01:01:13;;;;;;;15.00;7.73;;;6.10;92.40;;;;;;5046343;28;20206;-78
2023/01/21 01:03:43;;;;;;;15.43;8.30;;;6.00;92.40;;;;;;5038713;28;20206;-78
2023/01/21 01:06:15;;;;;;;18.53;7.63;;;6.00;92.40;;;;;;5041955;28;20744;-78
2023/01/21 01:08:44;;;;;;;15.53;7.90;;;6.00;92.40;;;;;;5033096;28;20206;-77
2023/01/21 01:11:14;;;;;;;17.17;8.70;;;6.00;92.40;;;;;;5030139;28;20464;-78
2023/01/21 01:13:42;;;;;;;14.73;8.00;;;6.00;92.40;;;;;;5036781;28;20202;-77
2023/01/21 01:16:17;;;;;;;14.23;7.27;;;6.00;92.40;;;;;;5036075;28;20229;-77
2023/01/21 01:18:45;;;;;;;16.47;8.00;;;6.00;92.50;;;;;;5037000;28;20327;-78
2023/01/21 01:21:17;;;;;;;15.43;7.63;;;6.00;92.30;;;;;;5039486;28;20198;-77
2023/01/21 01:23:46;;;;;;;15.33;7.77;;;6.00;92.30;;;;;;5046516;28;20243;-77
2023/01/21 01:26:17;;;;;;;17.83;8.63;;;6.00;92.30;;;;;;5052864;28;20205;-77
2023/01/21 01:28:45;;;;;;;18.67;8.13;;;6.10;92.30;;;;;;5046412;28;20213;-76
2023/01/21 01:31:15;;;;;;;15.40;7.97;;;6.00;92.10;;;;;;5055204;28;20206;-78
2023/01/21 01:33:44;;;;;;;13.70;7.60;;;6.00;92.10;;;;;;5043457;28;20198;-77
2023/01/21 01:36:16;;;;;;;15.57;7.70;;;6.10;92.10;;;;;;5049871;28;20263;-78
2023/01/21 01:38:45;;;;;;;13.40;7.47;;;6.10;92.10;;;;;;5038514;28;20232;-76
2023/01/21 01:41:17;;;;;;;16.07;8.47;;;6.10;92.00;;;;;;5045443;28;20291;-78
2023/01/21 01:43:57;;;;;;;16.50;8.33;;;6.00;91.90;;;;;;5050823;28;20649;-77
2023/01/21 01:46:28;;;;;;;14.70;7.67;;;6.00;91.90;;;;;;5051353;28;20194;-78
2023/01/21 01:49:06;;;;;;;16.77;8.63;;;5.90;92.00;;;;;;5038619;28;20217;-76
2023/01/21 01:51:43;;;;;;;17.60;8.27;;;6.00;92.00;;;;;;5037906;28;20252;-77
2023/01/21 01:54:15;;;;;;;16.07;7.83;;;5.90;91.90;;;;;;5042114;28;20228;-76
2023/01/21 01:56:45;;;;;;;14.87;7.90;;;6.00;91.90;;;;;;5053915;28;20194;-77
2023/01/21 01:59:15;;;;;;;15.57;7.70;;;6.00;91.90;;;;;;5048900;28;20193;-76
2023/01/21 02:01:43;;;;;;;15.23;7.90;;;6.10;91.90;;;;;;5041681;28;20239;-76
2023/01/21 02:04:17;;;;;;;12.90;7.03;;;6.00;91.80;;;;;;5045468;28;20196;-78
2023/01/21 02:06:48;;;;;;;16.27;7.80;;;6.00;91.80;;;;;;5045936;28;20199;-76
2023/01/21 02:09:17;;;;;;;16.53;8.40;;;6.00;91.80;;;;;;5040951;28;20773;-76
2023/01/21 02:11:45;;;;;;;16.93;8.03;;;6.00;91.80;;;;;;5042614;28;20246;-79
2023/01/21 02:14:14;;;;;;;15.33;8.13;;;5.90;91.90;;;;;;5036200;28;20201;-78
2023/01/21 02:17:05;;;;;;;13.97;7.47;;;5.90;91.80;;;;;;5044868;28;20242;-77
2023/01/21 02:20:03;;;;;;;17.07;8.10;;;5.90;91.90;;;;;;5037851;28;20594;-78
2023/01/21 02:22:40;;;;;;;15.50;7.57;;;5.90;91.90;;;;;;5046470;28;20201;-77
2023/01/21 02:25:38;;;;;;;16.67;8.43;;;5.80;91.90;;;;;;5053818;28;20253;-77
2023/01/21 02:28:45;;;;;;;15.20;7.50;;;5.80;91.80;;;;;;5042668;28;20750;-76
2023/01/21 02:31:51;;;;;;;16.80;8.60;;;5.80;91.80;;;;;;5035823;28;20254;-78
2023/01/21 02:34:31;;;;;;;15.73;8.20;;;5.80;92.30;;;;;;5039361;28;20226;-78
2023/01/21 02:37:08;;;;;;;14.20;7.17;;;5.80;91.90;;;;;;5038178;28;20200;-78
2023/01/21 02:39:57;;;;;;;14.80;8.10;;;5.80;91.90;;;;;;5039286;28;20216;-77
2023/01/21 02:42:32;;;;;;;15.70;7.30;;;5.80;91.90;;;;;;5036680;28;20645;-78
2023/01/21 02:45:09;;;;;;;13.90;8.03;;;5.80;91.80;;;;;;5044893;28;20197;-77
2023/01/21 02:47:47;;;;;;;14.37;7.43;;;5.80;91.80;;;;;;5048521;28;20199;-77
2023/01/21 02:50:21;;;;;;;17.93;8.10;;;5.80;91.80;;;;;;5051312;28;20196;-77
2023/01/21 02:52:56;;;;;;;16.53;7.10;;;5.80;91.80;;;;;;5034533;28;20249;-76
2023/01/21 02:55:29;;;;;;;14.80;7.43;;;5.80;91.80;;;;;;5045781;28;20205;-77
2023/01/21 02:58:02;;;;;;;14.63;8.00;;;5.80;91.70;;;;;;5040247;28;20190;-77
2023/01/21 03:00:44;;;;;;;16.67;7.97;;;5.80;91.70;;;;;;5048194;28;20196;-77
2023/01/21 03:03:44;;;;;;;17.70;8.30;;;5.80;91.70;;;;;;5047906;28;20205;-78
2023/01/21 03:06:42;;;;;;;15.20;8.30;;;5.80;91.80;;;;;;5010029;28;20199;-78
2023/01/21 03:09:29;;;;;;;13.73;7.67;;;5.70;91.80;;;;;;5049230;28;20233;-75
2023/01/21 03:12:09;;;;;;;16.70;7.93;;;5.70;91.70;;;;;;5043199;28;20229;-77
2023/01/21 03:17:36;;;;;;;16.30;8.17;;;5.70;91.80;;;;;;5036389;28;21895;-78
2023/01/21 03:20:11;;;;;;;15.40;7.77;;;5.60;91.80;;;;;;5048343;28;20186;-77
2023/01/21 03:22:41;;;;;;;16.07;8.20;;;5.70;92.20;;;;;;5034864;28;20191;-77
2023/01/21 03:25:13;;;;;;;18.73;8.40;;;5.60;91.80;;;;;;5052793;28;20589;-77
2023/01/21 03:27:48;;;;;;;14.70;8.30;;;5.60;91.80;;;;;;5038563;28;20196;-76
2023/01/21 03:30:20;;;;;;;15.57;8.03;;;5.70;91.90;;;;;;5044880;28;20191;-77
2023/01/21 03:32:51;;;;;;;19.17;8.07;;;5.70;91.80;;;;;;5043615;28;20701;-76
2023/01/21 03:35:23;;;;;;;16.07;8.30;;;5.70;91.70;;;;;;5039230;28;20200;-76
2023/01/21 03:37:58;;;;;;;17.37;7.60;;;5.70;91.70;;;;;;5040028;28;20237;-76
2023/01/21 03:40:30;;;;;;;18.73;8.70;;;5.70;91.60;;;;;;5041292;28;20202;-77
2023/01/21 03:42:59;;;;;;;18.13;8.40;;;5.70;91.60;;;;;;5042615;28;20195;-77
2023/01/21 03:45:36;;;;;;;14.80;7.53;;;5.70;91.60;;;;;;5039973;28;20539;-77
2023/01/21 03:48:13;;;;;;;14.10;7.63;;;5.80;91.60;;;;;;5039418;28;20202;-77
2023/01/21 03:50:49;;;;;;;16.67;7.97;;;5.80;91.60;;;;;;5050577;28;20283;-76
2023/01/21 03:53:20;;;;;;;16.43;8.13;;;5.70;91.60;;;;;;5032052;28;20220;-76
2023/01/21 03:55:50;;;;;;;15.13;7.53;;;5.70;91.60;;;;;;5027046;28;20555;-77
2023/01/21 03:58:19;;;;;;;17.20;9.13;;;5.70;91.60;;;;;;5015595;28;20436;-77
2023/01/21 04:00:48;;;;;;;15.93;7.53;;;5.70;91.60;;;;;;5023554;28;20207;-76
2023/01/21 04:03:16;;;;;;;14.73;7.67;;;5.70;91.60;;;;;;5025221;28;20208;-77
2023/01/21 04:05:44;;;;;;;14.00;7.87;;;5.80;91.60;;;;;;5029553;28;20207;-77
2023/01/21 04:08:13;;;;;;;14.63;7.73;;;5.80;91.60;;;;;;5018259;28;20204;-77
2023/01/21 04:10:42;;;;;;;15.27;7.67;;;5.70;91.50;;;;;;5019198;28;20255;-78
2023/01/21 04:13:11;;;;;;;14.10;7.90;;;5.80;91.50;;;;;;5011867;28;20200;-77
2023/01/21 04:15:39;;;;;;;13.63;6.77;;;5.80;91.60;;;;;;5017872;28;20201;-78
2023/01/21 04:18:07;;;;;;;15.23;7.50;;;5.80;91.50;;;;;;5021837;28;20247;-77
2023/01/21 04:20:36;;;;;;;15.97;8.17;;;5.80;91.50;;;;;;5019476;28;20208;-77
2023/01/21 04:23:04;;;;;;;18.47;9.03;;;5.80;91.50;;;;;;5022767;28;20200;-76
2023/01/21 04:25:32;;;;;;;14.77;7.43;;;5.80;91.50;;;;;;5027982;28;20653;-78
2023/01/21 04:28:02;;;;;;;14.13;7.43;;;5.80;91.50;;;;;;5022344;28;20229;-76
2023/01/21 04:30:30;;;;;;;13.27;7.40;;;5.80;91.50;;;;;;5028373;28;20215;-77
2023/01/21 04:32:59;;;;;;;14.87;7.97;;;5.80;91.50;;;;;;5014827;28;20192;-76
2023/01/21 04:35:27;;;;;;;13.93;6.80;;;5.80;91.50;;;;;;5023897;28;20204;-76
2023/01/21 04:37:55;;;;;;;15.53;7.40;;;5.80;91.50;;;;;;5015613;28;20649;-77
2023/01/21 04:40:24;;;;;;;14.53;7.37;;;5.80;91.50;;;;;;5016713;28;20229;-76
2023/01/21 04:42:52;;;;;;;13.77;6.87;;;5.80;91.50;;;;;;5010255;28;20223;-75
2023/01/21 04:45:22;;;;;;;15.60;8.70;;;5.80;91.50;;;;;;5025783;28;20506;-76
2023/01/21 04:47:50;;;;;;;13.23;7.70;;;5.80;91.60;;;;;;5022489;28;20197;-75
2023/01/21 04:50:19;;;;;;;15.17;7.27;;;5.80;91.60;;;;;;5017224;28;20223;-78
2023/01/21 04:52:47;;;;;;;15.57;7.43;;;5.80;91.50;;;;;;5014379;28;20293;-77
2023/01/21 04:55:15;;;;;;;12.60;6.57;;;5.70;91.50;;;;;;5023505;28;20213;-78
2023/01/21 04:57:44;;;;;;;12.20;6.67;;;5.80;91.40;;;;;;5022149;28;20200;-77
2023/01/21 05:00:13;;;;;;;13.90;7.17;;;5.80;91.40;;;;;;5025451;28;20197;-76
2023/01/21 05:02:43;;;;;;;15.13;7.90;;;5.80;91.40;;;;;;5024787;28;20526;-77
2023/01/21 05:05:11;;;;;;;14.20;7.83;;;5.80;91.40;;;;;;5021881;28;20199;-77
2023/01/21 05:07:40;;;;;;;14.37;6.97;;;5.80;91.30;;;;;;5024207;28;20249;-77
2023/01/21 05:10:10;;;;;;;15.93;7.00;;;5.90;91.30;;;;;;5024420;28;20215;-75
2023/01/21 05:12:39;;;;;;;12.17;7.37;;;5.90;91.30;;;;;;5018938;28;20227;-77
2023/01/21 05:15:08;;;;;;;14.60;7.57;;;5.90;91.20;;;;;;5016200;28;20499;-77
2023/01/21 05:17:37;;;;;;;13.30;6.93;;;5.90;91.20;;;;;;5011956;28;20258;-77
2023/01/21 05:20:08;;;;;;;15.50;8.33;;;5.90;91.20;;;;;;5023930;28;20656;-77
2023/01/21 05:22:36;;;;;;;14.97;7.60;;;5.90;91.10;;;;;;5021509;28;20191;-77
2023/01/21 05:25:05;;;;;;;14.07;7.53;;;5.90;91.10;;;;;;5018527;28;20247;-77
2023/01/21 05:27:34;;;;;;;15.30;7.10;;;5.90;91.00;;;;;;5014483;28;20210;-75
2023/01/21 05:30:03;;;;;;;15.73;7.67;;;5.90;91.00;;;;;;5024482;28;20751;-76
2023/01/21 05:32:31;;;;;;;13.63;7.10;;;5.90;90.90;;;;;;5024166;28;20245;-75
2023/01/21 05:34:59;;;;;;;15.83;7.17;;;5.90;90.90;;;;;;5023119;28;20196;-75
2023/01/21 05:37:29;;;;;;;14.03;7.60;;;5.90;90.90;;;;;;5022403;28;21778;-79
2023/01/21 05:39:58;;;;;;;17.27;8.73;;;5.90;90.90;;;;;;5012026;28;20431;-79
2023/01/21 05:42:26;;;;;;;14.63;7.60;;;5.90;91.10;;;;;;5020317;28;20202;-78
2023/01/21 05:44:55;;;;;;;16.10;6.83;;;5.90;91.10;;;;;;5025402;28;20213;-78
2023/01/21 05:47:23;;;;;;;17.03;7.50;;;5.90;91.00;;;;;;5026117;28;20208;-75
2023/01/21 05:49:52;;;;;;;14.67;7.23;;;6.00;91.00;;;;;;5024629;28;20220;-77
2023/01/21 05:52:20;;;;;;;13.77;7.30;;;6.00;91.00;;;;;;5019176;28;20259;-78
2023/01/21 05:54:50;;;;;;;13.53;6.90;;;6.00;91.00;;;;;;5013852;28;20714;-78
2023/01/21 05:57:29;;;;;;;13.77;6.73;;;6.00;90.90;;;;;;5032859;28;20302;-78
2023/01/21 05:59:58;;;;;;;16.60;7.80;;;6.10;90.90;;;;;;5038815;28;20645;-78
2023/01/21 06:02:27;;;;;;;14.13;7.60;;;6.10;90.90;;;;;;5022110;28;20205;-78
2023/01/21 06:04:55;;;;;;;13.70;7.37;;;6.10;90.90;;;;;;5025217;28;20208;-78
2023/01/21 06:07:23;;;;;;;14.90;7.47;;;6.10;90.80;;;;;;5028926;28;20200;-78
2023/01/21 06:09:53;;;;;;;16.27;7.77;;;6.10;90.70;;;;;;5027538;28;20225;-79
2023/01/21 06:12:21;;;;;;;15.23;7.33;;;6.10;90.70;;;;;;5026210;28;20205;-77
2023/01/21 06:14:51;;;;;;;14.00;7.23;;;6.10;90.70;;;;;;5024437;28;20232;-77
2023/01/21 06:17:20;;;;;;;16.03;7.97;;;6.20;90.80;;;;;;5036862;28;20208;-77
2023/01/21 06:19:48;;;;;;;19.57;7.73;;;6.20;90.80;;;;;;5030873;28;20205;-79
2023/01/21 06:22:17;;;;;;;16.97;8.23;;;6.30;90.80;;;;;;5021775;28;20236;-79
2023/01/21 06:24:45;;;;;;;15.10;7.27;;;6.30;90.70;;;;;;5019559;28;20268;-77
2023/01/21 06:27:15;;;;;;;16.23;7.77;;;6.30;90.70;;;;;;5039957;28;20204;-78
2023/01/21 06:29:43;;;;;;;15.60;7.73;;;6.40;90.70;;;;;;5023946;28;20221;-77
2023/01/21 06:32:12;;;;;;;15.83;8.13;;;6.40;90.70;;;;;;5018679;28;20256;-78
2023/01/21 06:34:40;;;;;;;15.27;7.93;;;6.50;90.70;;;;;;5029399;28;20494;-78
2023/01/21 06:37:09;;;;;;;13.67;7.47;;;6.50;90.70;;;;;;5025222;28;20205;-79
2023/01/21 06:39:37;;;;;;;16.33;7.53;;;6.60;90.70;;;;;;5024242;28;20212;-78
2023/01/21 06:42:06;;;;;;;14.93;8.00;;;6.60;90.60;;;;;;5028627;28;20209;-78
2023/01/21 06:44:35;;;;;;;17.53;7.80;;;6.70;90.60;;;;;;5025364;28;20202;-78
2023/01/21 06:47:04;;;;;;;14.70;9.00;;;6.70;90.50;;;;;;5026413;28;20443;-78
2023/01/21 06:49:32;;;;;;;16.13;7.77;;;6.70;90.60;;;;;;5024934;28;20221;-78
2023/01/21 06:52:00;;;;;;;16.83;8.43;;;6.80;90.60;;;;;;5022407;28;20197;-79
2023/01/21 06:54:29;;;;;;;18.40;8.60;;;6.80;90.50;;;;;;5033606;28;20252;-79
2023/01/21 06:56:58;;;;;;;18.27;8.27;;;6.80;90.40;;;;;;5034756;28;20222;-79
2023/01/21 06:59:26;;;;;;;17.57;8.37;;;6.90;90.40;;;;;;5024866;28;20204;-78
2023/01/21 07:01:57;;;;;;;18.87;9.93;;;6.90;90.40;;;;;;5023179;28;20199;-78
2023/01/21 07:04:26;;;;;;;16.27;9.13;;;7.00;90.40;;;;;;5023946;28;20191;-77
2023/01/21 07:06:55;;;;;;;19.60;8.63;;;7.00;90.40;;;;;;5021217;28;20240;-78
2023/01/21 07:09:23;;;;;;;18.23;8.80;;;7.10;90.40;;;;;;5026182;28;20660;-77
2023/01/21 07:11:51;;;;;;;18.70;9.30;;;7.10;90.30;;;;;;5022784;28;20739;-76
2023/01/21 07:14:20;;;;;;;18.67;9.47;;;7.20;90.30;;;;;;5016704;28;20198;-79
2023/01/21 07:16:48;;;;;;;17.37;9.03;;;7.20;90.20;;;;;;5023999;28;20257;-79
2023/01/21 07:19:18;;;;;;;18.13;10.50;;;7.30;90.20;;;;;;5017992;28;20203;-79
2023/01/21 07:21:46;;;;;;;18.33;9.60;;;7.30;90.20;;;;;;5008643;28;20316;-79
2023/01/21 07:24:14;;;;;;;17.43;9.17;;;7.40;90.20;;;;;;5017734;28;20214;-78
2023/01/21 07:26:43;;;;;;;22.13;11.65;;;7.50;90.20;;;;;;5032415;28;20501;-77
2023/01/21 07:29:11;;;;;;;15.97;8.60;;;7.60;90.30;;;;;;5019855;28;20253;-78
2023/01/21 07:31:39;;;;;;;16.53;8.53;;;7.60;90.10;;;;;;5027161;28;20215;-79
2023/01/21 07:34:08;;;;;;;15.07;7.87;;;7.70;90.00;;;;;;5019971;28;20201;-78
2023/01/21 07:36:38;;;;;;;17.00;8.90;;;7.80;90.00;;;;;;5025208;28;20254;-78
2023/01/21 07:39:06;;;;;;;17.60;9.40;;;7.90;89.30;;;;;;5016055;28;20627;-78
2023/01/21 07:41:35;;;;;;;18.33;9.30;;;8.00;89.40;;;;;;5026486;28;20199;-80
2023/01/21 07:44:03;;;;;;;15.57;8.20;;;8.10;89.40;;;;;;5026050;28;20192;-78
2023/01/21 07:46:32;;;;;;;18.00;9.30;;;8.20;89.40;;;;;;5017308;28;20199;-78
2023/01/21 07:49:00;;;;;;;17.03;8.83;;;8.30;88.70;;;;;;5024513;28;20230;-79
2023/01/21 07:51:28;;;;;;;19.38;11.35;;;8.30;88.20;;;;;;5022825;28;20844;-79
2023/01/21 07:53:58;;;;;;;20.00;10.87;;;8.40;88.60;;;;;;5015559;28;20230;-80
2023/01/21 07:56:27;;;;;;;17.70;9.97;;;8.50;88.60;;;;;;5019736;28;20205;-80
2023/01/21 07:58:55;;;;;;;19.57;11.03;;;8.50;87.00;;;;;;5014434;28;20207;-79
2023/01/21 08:01:25;;;;;;;18.30;9.83;;;8.60;86.90;;;;;;5025524;28;20235;-78
2023/01/21 08:03:57;;;;;;;17.60;9.43;;;8.70;87.10;;;;;;5013929;28;20274;-79
2023/01/21 08:06:26;;;;;;;18.87;10.53;;;8.80;87.30;;;;;;5021481;28;20230;-79
2023/01/21 08:08:54;;;;;;;24.17;10.47;;;8.80;86.70;;;;;;5018512;28;20592;-79
2023/01/21 08:11:24;;;;;;;16.63;8.93;;;8.90;86.60;;;;;;5022452;28;20290;-79
2023/01/21 08:13:55;;;;;;;19.95;10.52;;;9.00;86.70;;;;;;5018283;28;20439;-79
2023/01/21 08:16:23;;;;;;;18.80;10.00;;;9.10;86.60;;;;;;5015926;28;20234;-79
2023/01/21 08:18:52;;;;;;;16.60;9.67;;;9.20;86.60;;;;;;5013775;28;20236;-81
2023/01/21 08:21:20;;;;;;;16.97;10.07;;;9.20;85.60;;;;;;5015122;28;20196;-81
2023/01/21 08:23:48;;;;;;;19.03;9.77;;;9.30;85.60;;;;;;5013791;28;20303;-79
2023/01/21 08:26:17;;;;;;;21.43;10.70;;;9.30;84.70;;;;;;5026146;28;20672;-79
2023/01/21 08:28:46;;;;;;;20.90;9.63;;;9.40;84.90;;;;;;5027493;28;20198;-78
2023/01/21 08:31:15;;;;;;;22.47;9.83;;;9.40;84.80;;;;;;5020322;28;20254;-79
2023/01/21 08:33:43;;;;;;;19.80;10.27;;;9.50;84.60;;;;;;5021456;28;20196;-79
2023/01/21 08:36:12;;;;;;;20.13;10.67;;;9.60;85.00;;;;;;5025358;28;20208;-79
2023/01/21 08:38:42;;;;;;;20.50;10.70;;;9.70;85.10;;;;;;5021802;28;20656;-77
2023/01/21 08:41:11;;;;;;;23.10;11.37;;;9.80;85.20;;;;;;5022032;28;20599;-78
2023/01/21 08:43:40;;;;;;;19.63;10.93;;;9.90;85.20;;;;;;5017058;28;20193;-78
2023/01/21 08:46:10;;;;;;;17.10;10.07;;;9.90;83.20;;;;;;5031189;28;20204;-77
2023/01/21 08:48:38;;;;;;;22.27;11.90;;;10.10;83.60;;;;;;5028378;28;20241;-78
2023/01/21 08:51:07;;;;;;;20.67;11.20;;;10.10;83.90;;;;;;5033158;28;20223;-80
2023/01/21 08:53:35;;;;;;;23.40;11.20;;;10.20;83.80;;;;;;5018122;28;20224;-77
2023/01/21 08:56:04;;;;;;;21.77;12.27;;;10.30;83.20;;;;;;5027937;28;20207;-76
2023/01/21 08:58:33;;;;;;;25.33;13.98;;;10.30;82.80;;;;;;5028459;28;20792;-82
2023/01/21 09:01:07;;;;;;;26.87;13.07;;;10.40;83.00;;;;;;5027819;28;20191;-81
2023/01/21 09:03:37;;;;;;;26.67;12.67;;;10.50;83.30;;;;;;5015802;28;20287;-80
2023/01/21 09:06:07;;;;;;;22.17;12.07;;;10.60;82.80;;;;;;5033109;28;20214;-79
2023/01/21 09:08:36;;;;;;;20.90;12.13;;;10.70;82.70;;;;;;5015171;28;20726;-78
2023/01/21 09:11:05;;;;;;;27.20;13.75;;;10.80;81.90;;;;;;5014516;28;20509;-79
2023/01/21 09:13:36;;;;;;;21.37;12.53;;;10.80;82.20;;;;;;5015156;28;20726;-81
2023/01/21 09:16:08;;;;;;;22.17;11.63;;;10.90;82.10;;;;;;5020658;28;20706;-77
2023/01/21 09:18:38;;;;;;;20.77;10.80;;;10.90;81.60;;;;;;5022995;28;20192;-77
2023/01/21 09:21:07;;;;;;;21.00;11.33;;;10.90;80.50;;;;;;5017019;28;20219;-78
2023/01/21 09:23:37;;;;;;;19.57;10.27;;;11.10;81.30;;;;;;5030809;28;20246;-81
2023/01/21 09:26:07;;;;;;;21.37;11.23;;;11.20;81.00;;;;;;5021325;28;20196;-79
2023/01/21 09:28:37;;;;;;;19.53;9.90;;;11.20;81.30;;;;;;5027698;28;20200;-78
2023/01/21 09:31:08;;;;;;;20.40;10.00;;;11.30;80.20;;;;;;5022682;28;20200;-80
2023/01/21 09:33:39;;;;;;;20.17;10.37;;;11.30;79.70;;;;;;5018752;28;20203;-76
2023/01/21 09:36:12;;;;;;;19.87;10.80;;;11.30;78.80;;;;;;5017947;28;20231;-81
2023/01/21 09:38:42;;;;;;;19.80;10.47;;;11.40;78.70;;;;;;5012630;28;20207;-82
2023/01/21 09:41:23;;;;;;;19.27;10.70;;;11.50;79.10;;;;;;5025690;28;20672;-80
2023/01/21 09:43:58;;;;;;;21.20;10.77;;;11.40;77.50;;;;;;5022873;28;20191;-79
2023/01/21 09:46:34;;;;;;;20.37;11.23;;;11.40;78.10;;;;;;5022179;28;20215;-80
2023/01/21 09:49:08;;;;;;;22.67;10.17;;;11.50;78.40;;;;;;5023873;28;20322;-82
2023/01/21 09:51:48;;;;;;;19.60;10.37;;;11.60;78.80;;;;;;5027083;28;20295;-81
2023/01/21 09:54:27;;;;;;;19.67;10.70;;;11.60;78.40;;;;;;5017551;28;20236;-79
2023/01/21 09:57:20;;;;;;;20.17;10.13;;;11.60;78.60;;;;;;5041540;28;20195;-81
2023/01/21 10:00:05;;;;;;;18.87;9.97;;;11.70;78.90;;;;;;5026740;28;20200;-80
2023/01/21 10:02:42;;;;;;;21.77;10.47;;;11.70;78.50;;;;;;5031958;28;20196;-82
2023/01/21 10:05:43;;;;;;;16.00;9.33;;;11.70;77.90;;;;;;5023647;28;20250;-82
2023/01/21 10:08:23;;;;;;;17.30;9.73;;;11.70;78.00;;;;;;5020894;28;20198;-81
2023/01/21 10:10:53;;;;;;;16.03;8.40;;;11.80;78.00;;;;;;5021621;28;20715;-81
2023/01/21 10:13:42;;;;;;;20.83;9.47;;;11.70;77.90;;;;;;5021796;28;20204;-82
2023/01/21 10:16:19;;;;;;;15.83;9.33;;;11.80;78.50;;;;;;5025156;28;20922;-81
2023/01/21 10:18:50;;;;;;;16.27;9.23;;;12.00;78.90;;;;;;5032270;28;20199;-80
2023/01/21 10:21:29;;;;;;;18.37;9.07;;;12.00;78.70;;;;;;5028264;28;20906;-80
2023/01/21 10:24:03;;;;;;;15.30;8.33;;;12.20;78.90;;;;;;5023488;28;20195;-83
2023/01/21 10:26:34;;;;;;;15.27;8.43;;;12.20;78.50;;;;;;5030010;28;20203;-81
2023/01/21 10:29:04;;;;;;;15.27;9.07;;;12.30;77.70;;;;;;5019425;28;20664;-83
2023/01/21 10:31:40;;;;;;;18.00;8.70;;;12.30;76.90;;;;;;5023131;28;20201;-80
2023/01/21 10:34:13;;;;;;;15.57;8.80;;;12.30;77.00;;;;;;5014035;28;20670;-79
2023/01/21 10:36:51;;;;;;;18.85;10.35;;;12.40;77.60;;;;;;5017361;28;20466;-80
2023/01/21 10:39:34;;;;;;;17.30;8.93;;;12.40;77.20;;;;;;5017814;28;20612;-81
2023/01/21 10:42:32;;;;;;;15.77;9.13;;;12.40;77.20;;;;;;5023097;28;20317;-80
2023/01/21 10:45:07;;;;;;;17.60;10.30;;;12.40;76.60;;;;;;5023934;28;20508;-83
2023/01/21 10:47:43;;;;;;;17.13;9.30;;;12.50;77.50;;;;;;5017082;28;20206;-82
2023/01/21 10:50:28;;;;;;;18.07;9.27;;;12.50;77.60;;;;;;5019350;28;20549;-81
2023/01/21 10:53:01;;;;;;;19.80;9.60;;;12.50;77.70;;;;;;5022719;28;20701;-81
2023/01/21 10:55:41;;;;;;;16.60;9.40;;;12.60;78.10;;;;;;5026463;28;20199;-83
2023/01/21 10:58:24;;;;;;;15.60;8.00;;;12.60;78.00;;;;;;5013653;28;20301;-83
2023/01/21 11:00:58;;;;;;;18.43;8.67;;;12.70;77.90;;;;;;5032410;28;20203;-81
2023/01/21 11:03:33;;;;;;;19.40;9.40;;;12.80;78.10;;;;;;5021164;28;20621;-83
2023/01/21 11:06:05;;;;;;;13.40;8.23;;;12.80;78.20;;;;;;5027185;28;20191;-80
2023/01/21 11:08:34;;;;;;;14.63;8.23;;;12.90;78.40;;;;;;5026604;28;20275;-80
2023/01/21 11:11:06;;;;;;;18.60;8.17;;;12.90;78.00;;;;;;5031187;28;20195;-81
2023/01/21 11:13:35;;;;;;;14.67;7.70;;;13.00;77.60;;;;;;5022752;28;20208;-81
2023/01/21 11:16:04;;;;;;;14.67;7.90;;;13.00;77.10;;;;;;5028912;28;20245;-81
2023/01/21 11:18:35;;;;;;;16.50;8.73;;;13.10;77.10;;;;;;5035497;28;20210;-81
2023/01/21 11:21:13;;;;;;;14.57;7.73;;;13.10;77.30;;;;;;5018066;28;20201;-80
2023/01/21 11:23:41;;;;;;;16.10;7.63;;;13.20;77.50;;;;;;5016000;28;20198;-79
2023/01/21 11:26:20;;;;;;;14.27;7.30;;;13.30;77.30;;;;;;5017692;28;20200;-79
2023/01/21 11:28:48;;;;;;;14.53;7.20;;;13.30;77.60;;;;;;5036493;28;20202;-79
2023/01/21 11:31:28;;;;;;;14.27;7.70;;;13.30;76.50;;;;;;5019074;28;20234;-79
2023/01/21 11:34:05;;;;;;;12.60;7.30;;;13.40;76.90;;;;;;5016930;28;20201;-80
2023/01/21 11:36:34;;;;;;;14.30;7.33;;;13.30;76.60;;;;;;5022318;28;20208;-81
2023/01/21 11:39:04;;;;;;;14.17;7.67;;;13.30;76.80;;;;;;5014760;28;20601;-79
2023/01/21 11:41:33;;;;;;;14.13;7.60;;;13.40;77.10;;;;;;5026257;28;20773;-80
2023/01/21 11:44:16;;;;;;;14.07;8.27;;;13.50;77.40;;;;;;5020458;28;20204;-80
2023/01/21 11:46:44;;;;;;;15.67;8.10;;;13.50;77.20;;;;;;5018480;28;20197;-78
2023/01/21 11:49:25;;;;;;;13.03;7.10;;;13.60;77.30;;;;;;5024560;28;20258;-82
2023/01/21 11:52:15;;;;;;;11.70;6.93;;;13.60;76.80;;;;;;5019462;28;20245;-84
2023/01/21 11:54:46;;;;;;;13.67;7.17;;;13.60;76.90;;;;;;5022422;28;20197;-81
2023/01/21 11:57:28;;;;;;;15.23;7.80;;;13.60;77.00;;;;;;5026616;28;20246;-83
2023/01/21 12:00:04;;;;;;;11.60;6.67;;;13.60;77.00;;;;;;5026340;28;20253;-83
2023/01/21 12:02:36;;;;;;;13.70;7.30;;;13.60;77.20;;;;;;5021446;28;20626;-78
2023/01/21 12:05:11;;;;;;;12.90;7.37;;;13.70;77.20;;;;;;5009507;28;20200;-81
2023/01/21 12:07:42;;;;;;;15.27;6.50;;;13.70;77.50;;;;;;5015521;28;20199;-81
2023/01/21 12:10:27;;;;;;;12.27;6.90;;;13.80;77.50;;;;;;5022805;28;20597;-78
2023/01/21 12:13:18;;;;;;;12.47;7.00;;;13.80;78.50;;;;;;5021588;28;20203;-79
2023/01/21 12:16:34;;;;;;;11.70;5.53;;;13.90;77.70;;;;;;5009676;28;20199;-78
2023/01/21 12:19:25;;;;;;;12.60;6.47;;;14.00;77.70;;;;;;5011590;28;20266;-79
2023/01/21 12:22:35;;;;;;;11.60;6.47;;;14.00;77.70;;;;;;5021846;28;20290;-80
2023/01/21 12:25:37;;;;;;;10.77;5.87;;;14.00;77.40;;;;;;5020606;28;20203;-81
2023/01/21 12:29:04;;;;;;;9.37;4.97;;;14.10;77.60;;;;;;4983167;28;20200;-81
2023/01/21 12:31:58;;;;;;;9.77;5.13;;;14.10;77.70;;;;;;5019201;28;20204;-80
2023/01/21 12:34:35;;;;;;;10.67;5.53;;;14.20;78.00;;;;;;5024769;28;20220;-81
2023/01/21 12:37:16;;;;;;;9.37;4.93;;;14.30;78.20;;;;;;5017198;28;20200;-81
2023/01/21 12:39:53;;;;;;;9.77;5.43;;;14.40;78.20;;;;;;5014449;28;20656;-80
2023/01/21 12:42:39;;;;;;;12.80;5.63;;;14.50;78.30;;;;;;5021777;28;20200;-82
2023/01/21 12:45:17;;;;;;;8.77;4.90;;;14.40;78.00;;;;;;5018661;28;20291;-81
2023/01/21 12:47:52;;;;;;;11.70;5.17;;;14.50;78.70;;;;;;5018799;28;20199;-80
2023/01/21 12:50:28;;;;;;;7.97;3.97;;;14.50;77.70;;;;;;5018991;28;20203;-80
2023/01/21 12:53:10;;;;;;;11.73;5.20;;;14.60;78.00;;;;;;5024802;28;20240;-80
2023/01/21 12:56:06;;;;;;;8.50;4.47;;;14.60;78.20;;;;;;5020588;28;20265;-81
2023/01/21 12:58:42;;;;;;;8.43;4.70;;;14.50;78.00;;;;;;5017594;28;21011;-80
2023/01/21 13:01:16;;;;;;;8.23;5.00;;;14.60;78.30;;;;;;5022734;28;20273;-81
2023/01/21 13:03:55;;;;;;;9.23;5.10;;;14.70;78.30;;;;;;5017593;28;20199;-80
2023/01/21 13:06:29;;;;;;;8.23;4.47;;;14.80;78.40;;;;;;5023258;28;20664;-81
2023/01/21 13:09:35;;;;;;;8.10;4.20;;;14.90;78.80;;;;;;5030777;28;20621;-82
2023/01/21 13:12:26;;;;;;;11.90;4.60;;;15.00;79.30;;;;;;5019199;28;20195;-81
2023/01/21 13:15:00;;;;;;;12.10;5.07;;;15.10;79.10;;;;;;5014226;28;20613;-82
2023/01/21 13:17:33;;;;;;;11.20;4.47;;;15.30;79.30;;;;;;5009283;28;20608;-79